createdAt,value
2023-02-27T00:00:19.852Z,63.80
2023-02-27T00:01:19.852Z,64.67
2023-02-27T00:02:19.888Z,63.77
2023-02-27T00:03:19.838Z,63.79
2023-02-27T00:04:20.823Z,64.21
2023-02-27T00:05:19.831Z,64.01
2023-02-27T00:06:19.796Z,63.56
2023-02-27T00:07:19.801Z,63.62
2023-02-27T00:08:19.814Z,63.79
2023-02-27T00:09:19.769Z,63.12
2023-02-27T00:10:19.860Z,63.75
2023-02-27T00:11:19.752Z,63.29
2023-02-27T00:12:19.741Z,63.02
2023-02-27T00:13:19.811Z,63.31
2023-02-27T00:14:19.723Z,63.77
2023-02-27T00:15:19.718Z,63.11
2023-02-27T00:16:19.812Z,63.33
2023-02-27T00:17:19.696Z,63.49
2023-02-27T00:18:19.693Z,64.27
2023-02-27T00:19:19.677Z,63.35
2023-02-27T00:20:19.670Z,63.18
2023-02-27T00:21:19.654Z,63.05
2023-02-27T00:22:19.646Z,63.07
2023-02-27T00:23:19.648Z,64.24
2023-02-27T00:24:19.633Z,63.33
2023-02-27T00:25:19.618Z,62.75
2023-02-27T00:26:19.613Z,63.22
2023-02-27T00:27:19.606Z,63.48
2023-02-27T00:28:19.602Z,62.83
2023-02-27T00:29:19.585Z,62.71
2023-02-27T00:30:19.575Z,63.01
2023-02-27T00:31:20.017Z,62.97
2023-02-27T00:32:19.627Z,62.76
2023-02-27T00:33:19.557Z,62.97
2023-02-27T00:34:19.532Z,63.41
2023-02-27T00:35:20.552Z,62.91
2023-02-27T00:36:19.524Z,63.39
2023-02-27T00:37:19.507Z,62.77
2023-02-27T00:38:19.516Z,62.30
2023-02-27T00:39:19.490Z,62.60
2023-02-27T00:40:19.488Z,63.17
2023-02-27T00:41:19.489Z,62.94
2023-02-27T00:42:19.467Z,62.92
2023-02-27T00:43:19.470Z,63.12
2023-02-27T00:44:19.458Z,63.47
2023-02-27T00:45:19.439Z,63.10
2023-02-27T00:46:19.463Z,63.60
2023-02-27T00:47:19.424Z,63.12
2023-02-27T00:48:19.423Z,63.18
2023-02-27T00:49:19.404Z,63.10
2023-02-27T00:50:19.396Z,62.99
2023-02-27T00:51:19.386Z,63.00
2023-02-27T00:52:19.385Z,63.09
2023-02-27T00:53:19.402Z,63.07
2023-02-27T00:54:19.356Z,62.83
2023-02-27T00:55:19.353Z,62.92
2023-02-27T00:56:19.340Z,62.83
2023-02-27T00:57:19.355Z,62.53
2023-02-27T00:58:19.333Z,62.72
2023-02-27T00:59:19.311Z,62.92
2023-02-27T01:00:19.308Z,62.71
2023-02-27T01:01:19.377Z,62.63
2023-02-27T01:02:19.302Z,62.89
2023-02-27T01:03:19.286Z,62.31
2023-02-27T01:04:19.270Z,62.91
2023-02-27T01:05:19.261Z,62.49
2023-02-27T01:06:19.252Z,62.58
2023-02-27T01:07:19.242Z,62.34
2023-02-27T01:08:19.243Z,62.57
2023-02-27T01:09:19.226Z,62.65
2023-02-27T01:10:19.236Z,63.46
2023-02-27T01:11:19.207Z,62.92
2023-02-27T01:12:19.199Z,62.59
2023-02-27T01:13:19.201Z,62.79
2023-02-27T01:14:19.181Z,62.14
2023-02-27T01:15:19.178Z,62.84
2023-02-27T01:16:19.236Z,61.79
2023-02-27T01:17:19.159Z,62.11
2023-02-27T01:18:19.162Z,61.99
2023-02-27T01:19:19.132Z,61.30
2023-02-27T01:20:20.133Z,62.85
2023-02-27T01:21:19.119Z,62.58
2023-02-27T01:22:19.112Z,62.14
2023-02-27T01:23:19.121Z,61.97
2023-02-27T01:24:19.093Z,62.44
2023-02-27T01:25:19.088Z,61.33
2023-02-27T01:26:19.099Z,61.86
2023-02-27T01:27:19.067Z,60.62
2023-02-27T01:28:19.133Z,60.51
2023-02-27T01:29:19.049Z,62.44
2023-02-27T01:30:19.041Z,61.87
2023-02-27T01:31:19.077Z,61.97
2023-02-27T01:32:19.111Z,62.02
2023-02-27T01:33:19.025Z,62.70
2023-02-27T01:34:18.999Z,61.54
2023-02-27T01:35:18.991Z,61.60
2023-02-27T01:36:18.981Z,60.99
2023-02-27T01:37:18.970Z,61.49
2023-02-27T01:38:18.979Z,61.82
2023-02-27T01:39:18.952Z,61.57
2023-02-27T01:40:18.951Z,62.04
2023-02-27T01:41:18.933Z,61.77
2023-02-27T01:42:18.923Z,61.33
2023-02-27T01:43:18.923Z,61.51
2023-02-27T01:44:18.923Z,61.15
2023-02-27T01:45:18.895Z,60.79
2023-02-27T01:46:18.883Z,61.38
2023-02-27T01:47:18.880Z,61.23
2023-02-27T01:48:18.884Z,60.94
2023-02-27T01:49:18.862Z,60.30
2023-02-27T01:50:18.852Z,61.37
2023-02-27T01:51:18.854Z,62.27
2023-02-27T01:52:18.832Z,61.50
2023-02-27T01:53:18.839Z,60.93
2023-02-27T01:54:18.814Z,61.50
2023-02-27T01:55:18.809Z,60.98
2023-02-27T01:56:18.796Z,60.83
2023-02-27T01:57:18.788Z,61.36
2023-02-27T01:58:18.795Z,61.87
2023-02-27T01:59:18.781Z,61.71
2023-02-27T02:00:18.757Z,62.47
2023-02-27T02:01:18.776Z,62.08
2023-02-27T02:02:18.761Z,61.46
2023-02-27T02:03:18.744Z,61.47
2023-02-27T02:04:18.733Z,62.01
2023-02-27T02:05:18.705Z,62.00
2023-02-27T02:06:18.700Z,62.18
2023-02-27T02:07:18.690Z,61.47
2023-02-27T02:08:18.697Z,61.67
2023-02-27T02:09:18.701Z,61.81
2023-02-27T02:10:18.669Z,61.75
2023-02-27T02:11:18.658Z,62.07
2023-02-27T02:12:18.650Z,61.01
2023-02-27T02:13:18.647Z,61.60
2023-02-27T02:14:18.626Z,62.61
2023-02-27T02:15:18.680Z,62.20
2023-02-27T02:16:18.645Z,61.83
2023-02-27T02:17:19.607Z,62.63
2023-02-27T02:18:18.604Z,60.90
2023-02-27T02:19:18.996Z,62.15
2023-02-27T02:20:18.575Z,61.81
2023-02-27T02:21:18.576Z,62.29
2023-02-27T02:22:18.557Z,61.91
2023-02-27T02:23:18.552Z,62.03
2023-02-27T02:24:18.539Z,61.65
2023-02-27T02:25:18.528Z,61.71
2023-02-27T02:26:18.543Z,61.34
2023-02-27T02:27:18.508Z,60.86
2023-02-27T02:28:18.523Z,61.40
2023-02-27T02:29:18.494Z,61.53
2023-02-27T02:30:18.484Z,61.70
2023-02-27T02:31:18.553Z,61.58
2023-02-27T02:32:18.493Z,61.92
2023-02-27T02:33:18.462Z,61.91
2023-02-27T02:34:18.447Z,61.63
2023-02-27T02:35:18.430Z,62.27
2023-02-27T02:36:19.430Z,61.13
2023-02-27T02:37:18.423Z,61.05
2023-02-27T02:38:18.427Z,61.90
2023-02-27T02:39:18.413Z,61.50
2023-02-27T02:40:18.392Z,61.33
2023-02-27T02:41:18.382Z,60.45
2023-02-27T02:42:18.384Z,61.79
2023-02-27T02:43:18.381Z,62.35
2023-02-27T02:44:18.390Z,61.79
2023-02-27T02:45:18.350Z,62.35
2023-02-27T02:46:18.380Z,62.28
2023-02-27T02:47:18.334Z,61.75
2023-02-27T02:48:18.325Z,61.73
2023-02-27T02:49:18.330Z,61.74
2023-02-27T02:50:18.304Z,61.21
2023-02-27T02:51:18.295Z,61.19
2023-02-27T02:52:18.292Z,60.86
2023-02-27T02:53:18.281Z,62.72
2023-02-27T02:54:18.274Z,62.05
2023-02-27T02:55:18.264Z,61.93
2023-02-27T02:56:19.241Z,60.88
2023-02-27T02:57:18.233Z,60.37
2023-02-27T02:58:18.232Z,60.57
2023-02-27T02:59:18.243Z,59.67
2023-02-27T03:00:18.210Z,61.57
2023-02-27T03:01:18.242Z,60.81
2023-02-27T03:02:18.191Z,62.55
2023-02-27T03:03:18.180Z,61.34
2023-02-27T03:04:18.191Z,61.12
2023-02-27T03:05:18.164Z,61.41
2023-02-27T03:06:18.179Z,62.00
2023-02-27T03:07:18.176Z,62.34
2023-02-27T03:08:18.138Z,62.44
2023-02-27T03:09:18.147Z,62.62
2023-02-27T03:10:18.130Z,60.89
2023-02-27T03:11:18.113Z,61.60
2023-02-27T03:12:18.133Z,61.39
2023-02-27T03:13:18.138Z,61.51
2023-02-27T03:14:18.098Z,62.06
2023-02-27T03:15:18.082Z,61.34
2023-02-27T03:16:18.070Z,62.10
2023-02-27T03:17:18.074Z,62.26
2023-02-27T03:18:18.052Z,61.44
2023-02-27T03:19:18.056Z,61.01
2023-02-27T03:20:18.024Z,61.29
2023-02-27T03:21:18.020Z,61.60
2023-02-27T03:22:18.014Z,61.14
2023-02-27T03:23:17.999Z,61.49
2023-02-27T03:24:18.004Z,61.82
2023-02-27T03:25:17.973Z,61.90
2023-02-27T03:26:17.976Z,62.09
2023-02-27T03:27:18.969Z,62.75
2023-02-27T03:28:17.962Z,61.86
2023-02-27T03:29:17.954Z,62.21
2023-02-27T03:30:17.931Z,62.05
2023-02-27T03:31:18.013Z,61.69
2023-02-27T03:32:17.992Z,61.99
2023-02-27T03:33:17.903Z,61.91
2023-02-27T03:34:17.911Z,60.90
2023-02-27T03:35:17.903Z,62.03
2023-02-27T03:36:17.889Z,62.22
2023-02-27T03:37:17.865Z,60.68
2023-02-27T03:38:17.865Z,61.43
2023-02-27T03:39:17.861Z,61.50
2023-02-27T03:40:17.839Z,61.58
2023-02-27T03:41:17.832Z,60.95
2023-02-27T03:42:17.819Z,62.08
2023-02-27T03:43:17.814Z,61.36
2023-02-27T03:44:17.814Z,60.61
2023-02-27T03:45:17.798Z,61.29
2023-02-27T03:46:17.808Z,61.38
2023-02-27T03:47:17.780Z,61.48
2023-02-27T03:48:17.766Z,61.79
2023-02-27T03:49:17.769Z,61.49
2023-02-27T03:50:17.765Z,61.38
2023-02-27T03:51:17.747Z,62.10
2023-02-27T03:52:17.724Z,61.23
2023-02-27T03:53:17.723Z,60.72
2023-02-27T03:54:17.719Z,60.77
2023-02-27T03:55:17.721Z,60.61
2023-02-27T03:56:17.693Z,61.03
2023-02-27T03:57:17.685Z,61.05
2023-02-27T03:58:17.679Z,61.21
2023-02-27T03:59:17.679Z,60.91
2023-02-27T04:00:17.652Z,61.27
2023-02-27T04:01:17.650Z,59.80
2023-02-27T04:02:17.646Z,60.31
2023-02-27T04:03:17.640Z,60.79
2023-02-27T04:04:17.635Z,61.33
2023-02-27T04:05:17.613Z,61.26
2023-02-27T04:06:17.604Z,60.64
2023-02-27T04:07:17.588Z,60.95
2023-02-27T04:08:17.586Z,60.50
2023-02-27T04:09:17.592Z,60.59
2023-02-27T04:10:17.584Z,60.21
2023-02-27T04:11:17.554Z,60.56
2023-02-27T04:12:17.546Z,58.74
2023-02-27T04:13:17.556Z,60.23
2023-02-27T04:14:17.543Z,60.84
2023-02-27T04:15:17.516Z,61.64
2023-02-27T04:16:17.565Z,59.19
2023-02-27T04:17:17.506Z,62.11
2023-02-27T04:18:17.503Z,59.37
2023-02-27T04:19:17.497Z,59.28
2023-02-27T04:20:17.474Z,59.90
2023-02-27T04:21:17.470Z,61.27
2023-02-27T04:22:17.475Z,62.21
2023-02-27T04:23:17.444Z,61.44
2023-02-27T04:24:17.457Z,61.80
2023-02-27T04:25:17.435Z,61.70
2023-02-27T04:26:17.424Z,61.28
2023-02-27T04:27:17.426Z,61.32
2023-02-27T04:28:17.437Z,61.41
2023-02-27T04:29:17.414Z,62.81
2023-02-27T04:30:17.389Z,60.85
2023-02-27T04:31:17.470Z,60.54
2023-02-27T04:32:17.560Z,60.99
2023-02-27T04:33:17.365Z,61.87
2023-02-27T04:34:17.365Z,60.49
2023-02-27T04:35:17.350Z,61.62
2023-02-27T04:36:17.341Z,61.80
2023-02-27T04:37:17.325Z,61.61
2023-02-27T04:38:17.326Z,59.67
2023-02-27T04:39:17.322Z,61.40
2023-02-27T04:40:17.301Z,61.95
2023-02-27T04:41:17.296Z,60.25
2023-02-27T04:42:17.291Z,61.91
2023-02-27T04:43:17.280Z,60.11
2023-02-27T04:44:17.286Z,61.06
2023-02-27T04:45:17.265Z,60.69
2023-02-27T04:46:17.250Z,60.89
2023-02-27T04:47:17.447Z,61.65
2023-02-27T04:48:17.231Z,61.36
2023-02-27T04:49:17.233Z,61.59
2023-02-27T04:50:17.216Z,59.86
2023-02-27T04:51:17.205Z,61.91
2023-02-27T04:52:17.194Z,61.80
2023-02-27T04:53:17.192Z,60.48
2023-02-27T04:54:17.192Z,61.03
2023-02-27T04:55:17.175Z,61.60
2023-02-27T04:56:17.159Z,60.83
2023-02-27T04:57:17.157Z,62.45
2023-02-27T04:58:17.151Z,60.15
2023-02-27T04:59:17.153Z,61.67
2023-02-27T05:00:17.133Z,61.25
2023-02-27T05:01:17.127Z,60.91
2023-02-27T05:02:17.234Z,61.08
2023-02-27T05:03:17.098Z,61.24
2023-02-27T05:04:17.102Z,60.88
2023-02-27T05:05:17.083Z,61.00
2023-02-27T05:06:17.072Z,62.51
2023-02-27T05:07:17.066Z,60.21
2023-02-27T05:08:17.056Z,60.82
2023-02-27T05:09:17.052Z,60.87
2023-02-27T05:10:17.030Z,61.55
2023-02-27T05:11:17.020Z,60.60
2023-02-27T05:12:17.018Z,60.27
2023-02-27T05:13:17.011Z,62.11
2023-02-27T05:14:17.012Z,60.42
2023-02-27T05:15:16.988Z,61.24
2023-02-27T05:16:16.991Z,60.87
2023-02-27T05:17:16.975Z,60.77
2023-02-27T05:18:17.021Z,60.65
2023-02-27T05:19:17.107Z,60.97
2023-02-27T05:20:16.942Z,60.62
2023-02-27T05:21:16.936Z,58.96
2023-02-27T05:22:16.926Z,61.15
2023-02-27T05:23:16.922Z,61.66
2023-02-27T05:24:16.921Z,61.25
2023-02-27T05:25:16.902Z,60.94
2023-02-27T05:26:16.892Z,62.37
2023-02-27T05:27:16.878Z,62.22
2023-02-27T05:28:16.869Z,61.45
2023-02-27T05:29:17.877Z,61.13
2023-02-27T05:30:16.856Z,61.30
2023-02-27T05:31:16.887Z,59.65
2023-02-27T05:32:17.004Z,62.00
2023-02-27T05:33:16.825Z,59.91
2023-02-27T05:34:16.954Z,60.35
2023-02-27T05:35:16.808Z,61.05
2023-02-27T05:36:16.795Z,61.51
2023-02-27T05:37:16.787Z,60.82
2023-02-27T05:38:16.781Z,61.50
2023-02-27T05:39:16.778Z,62.16
2023-02-27T05:40:16.763Z,61.68
2023-02-27T05:41:16.757Z,62.62
2023-02-27T05:42:16.756Z,62.31
2023-02-27T05:43:16.749Z,61.83
2023-02-27T05:44:16.736Z,60.06
2023-02-27T05:45:16.715Z,60.81
2023-02-27T05:46:16.730Z,62.55
2023-02-27T05:47:16.693Z,61.71
2023-02-27T05:48:19.332Z,61.70
2023-02-27T05:49:16.696Z,60.62
2023-02-27T05:50:16.668Z,61.46
2023-02-27T05:51:16.667Z,60.02
2023-02-27T05:52:16.654Z,61.74
2023-02-27T05:53:16.643Z,60.94
2023-02-27T05:54:16.650Z,61.32
2023-02-27T05:55:18.836Z,60.65
2023-02-27T05:56:17.620Z,62.30
2023-02-27T05:57:16.603Z,62.64
2023-02-27T05:58:16.604Z,61.84
2023-02-27T05:59:16.600Z,61.73
2023-02-27T06:00:16.593Z,61.40
2023-02-27T06:01:16.571Z,60.48
2023-02-27T06:02:16.653Z,60.42
2023-02-27T06:03:16.581Z,60.79
2023-02-27T06:04:16.542Z,60.94
2023-02-27T06:05:16.559Z,60.98
2023-02-27T06:06:16.540Z,60.91
2023-02-27T06:07:16.520Z,61.57
2023-02-27T06:08:16.510Z,61.92
2023-02-27T06:09:16.515Z,61.54
2023-02-27T06:10:16.509Z,61.93
2023-02-27T06:11:16.486Z,60.70
2023-02-27T06:12:16.478Z,62.42
2023-02-27T06:13:16.501Z,61.59
2023-02-27T06:14:16.468Z,62.07
2023-02-27T06:15:16.462Z,60.36
2023-02-27T06:16:16.484Z,61.87
2023-02-27T06:17:16.438Z,60.94
2023-02-27T06:18:16.426Z,61.64
2023-02-27T06:19:16.422Z,61.41
2023-02-27T06:20:16.420Z,62.55
2023-02-27T06:21:16.404Z,61.30
2023-02-27T06:22:16.394Z,61.46
2023-02-27T06:23:16.383Z,60.25
2023-02-27T06:24:16.377Z,60.93
2023-02-27T06:25:16.375Z,60.32
2023-02-27T06:26:16.358Z,61.73
2023-02-27T06:27:16.347Z,62.06
2023-02-27T06:28:16.351Z,62.05
2023-02-27T06:29:16.325Z,61.91
2023-02-27T06:30:16.336Z,61.07
2023-02-27T06:31:16.368Z,60.79
2023-02-27T06:32:16.385Z,61.30
2023-02-27T06:33:16.292Z,61.72
2023-02-27T06:34:16.283Z,61.87
2023-02-27T06:35:16.287Z,63.12
2023-02-27T06:36:16.318Z,61.32
2023-02-27T06:37:16.259Z,61.26
2023-02-27T06:38:16.259Z,62.19
2023-02-27T06:39:16.253Z,62.15
2023-02-27T06:40:16.245Z,61.04
2023-02-27T06:41:16.228Z,60.91
2023-02-27T06:42:16.216Z,62.06
2023-02-27T06:43:16.206Z,61.41
2023-02-27T06:44:17.955Z,61.97
2023-02-27T06:45:16.240Z,62.49
2023-02-27T06:46:16.253Z,61.63
2023-02-27T06:47:16.167Z,61.49
2023-02-27T06:48:16.161Z,61.44
2023-02-27T06:49:16.147Z,61.64
2023-02-27T06:50:16.161Z,61.72
2023-02-27T06:51:16.135Z,62.10
2023-02-27T06:52:16.131Z,61.98
2023-02-27T06:53:16.113Z,62.01
2023-02-27T06:54:16.110Z,61.14
2023-02-27T06:55:16.103Z,61.31
2023-02-27T06:56:16.087Z,61.72
2023-02-27T06:57:16.075Z,62.31
2023-02-27T06:58:16.064Z,62.21
2023-02-27T06:59:16.062Z,61.15
2023-02-27T07:00:16.052Z,61.09
2023-02-27T07:01:16.087Z,61.06
2023-02-27T07:02:16.021Z,61.70
2023-02-27T07:03:16.065Z,61.49
2023-02-27T07:04:16.092Z,61.96
2023-02-27T07:05:16.016Z,61.97
2023-02-27T07:06:15.991Z,61.25
2023-02-27T07:07:35.710Z,61.18
2023-02-27T07:08:16.970Z,61.12
2023-02-27T07:09:15.956Z,61.76
2023-02-27T07:10:15.975Z,60.78
2023-02-27T07:11:15.941Z,60.98
2023-02-27T07:12:15.937Z,61.22
2023-02-27T07:13:18.436Z,61.02
2023-02-27T07:14:16.919Z,60.99
2023-02-27T07:15:15.916Z,59.63
2023-02-27T07:16:15.943Z,61.16
2023-02-27T07:17:15.897Z,61.83
2023-02-27T07:18:16.885Z,61.68
2023-02-27T07:19:15.901Z,61.89
2023-02-27T07:20:15.880Z,61.15
2023-02-27T07:21:15.856Z,61.15
2023-02-27T07:22:15.849Z,61.22
2023-02-27T07:23:15.843Z,61.48
2023-02-27T07:24:15.817Z,60.68
2023-02-27T07:25:16.837Z,61.66
2023-02-27T07:26:15.802Z,61.90
2023-02-27T07:27:15.803Z,61.82
2023-02-27T07:28:15.809Z,60.82
2023-02-27T07:29:15.780Z,61.00
2023-02-27T07:30:15.790Z,61.20
2023-02-27T07:31:15.842Z,60.72
2023-02-27T07:32:15.847Z,61.37
2023-02-27T07:33:15.741Z,60.85
2023-02-27T07:34:15.743Z,61.72
2023-02-27T07:35:15.744Z,61.20
2023-02-27T07:36:15.719Z,60.96
2023-02-27T07:37:15.711Z,60.92
2023-02-27T07:38:15.697Z,61.55
2023-02-27T07:39:15.693Z,60.55
2023-02-27T07:40:15.716Z,61.03
2023-02-27T07:41:29.480Z,60.97
2023-02-27T07:42:17.674Z,61.03
2023-02-27T07:43:16.661Z,61.49
2023-02-27T07:44:15.653Z,61.67
2023-02-27T07:45:15.659Z,61.23
2023-02-27T07:46:15.659Z,61.68
2023-02-27T07:47:15.622Z,61.26
2023-02-27T07:48:15.620Z,61.35
2023-02-27T07:49:15.636Z,61.46
2023-02-27T07:50:15.617Z,61.01
2023-02-27T07:51:15.593Z,61.70
2023-02-27T07:52:15.577Z,60.99
2023-02-27T07:53:15.566Z,61.16
2023-02-27T07:54:15.564Z,61.82
2023-02-27T07:55:15.567Z,61.45
2023-02-27T07:56:15.544Z,61.16
2023-02-27T07:57:15.534Z,61.28
2023-02-27T07:58:15.530Z,61.27
2023-02-27T07:59:15.519Z,62.00
2023-02-27T08:00:15.525Z,60.76
2023-02-27T08:01:15.505Z,61.48
2023-02-27T08:02:15.492Z,61.77
2023-02-27T08:03:15.492Z,62.31
2023-02-27T08:04:15.494Z,61.75
2023-02-27T08:05:15.482Z,61.74
2023-02-27T08:06:15.458Z,61.72
2023-02-27T08:07:15.453Z,61.96
2023-02-27T08:08:15.446Z,62.92
2023-02-27T08:09:15.426Z,61.52
2023-02-27T08:10:15.429Z,61.81
2023-02-27T08:11:16.413Z,61.68
2023-02-27T08:12:15.408Z,62.19
2023-02-27T08:13:17.911Z,60.81
2023-02-27T08:14:16.394Z,61.63
2023-02-27T08:15:15.388Z,62.28
2023-02-27T08:16:15.400Z,62.64
2023-02-27T08:17:16.361Z,61.65
2023-02-27T08:18:15.353Z,62.04
2023-02-27T08:19:15.345Z,62.82
2023-02-27T08:20:15.354Z,62.39
2023-02-27T08:21:15.326Z,62.89
2023-02-27T08:22:15.325Z,62.50
2023-02-27T08:23:15.307Z,62.76
2023-02-27T08:24:15.317Z,61.85
2023-02-27T08:25:15.309Z,62.26
2023-02-27T08:26:15.291Z,62.47
2023-02-27T08:27:15.282Z,62.03
2023-02-27T08:28:15.262Z,62.89
2023-02-27T08:29:17.002Z,63.46
2023-02-27T08:30:16.257Z,63.44
2023-02-27T08:31:15.256Z,64.13
2023-02-27T08:32:15.346Z,63.47
2023-02-27T08:33:15.233Z,62.75
2023-02-27T08:34:15.207Z,62.92
2023-02-27T08:35:15.219Z,62.47
2023-02-27T08:36:15.187Z,62.76
2023-02-27T08:37:15.183Z,63.11
2023-02-27T08:38:15.173Z,63.56
2023-02-27T08:39:15.171Z,63.98
2023-02-27T08:40:15.176Z,63.10
2023-02-27T08:41:15.146Z,63.03
2023-02-27T08:42:15.138Z,64.30
2023-02-27T08:43:15.128Z,64.79
2023-02-27T08:44:15.123Z,64.97
2023-02-27T08:45:15.128Z,65.14
2023-02-27T08:46:15.159Z,63.73
2023-02-27T08:47:15.100Z,65.35
2023-02-27T08:48:15.088Z,65.59
2023-02-27T08:49:15.090Z,66.57
2023-02-27T08:50:15.092Z,64.53
2023-02-27T08:51:15.060Z,62.91
2023-02-27T08:52:15.058Z,63.31
2023-02-27T08:53:15.043Z,63.88
2023-02-27T08:54:15.036Z,64.08
2023-02-27T08:55:15.034Z,62.85
2023-02-27T08:56:15.024Z,64.07
2023-02-27T08:57:15.007Z,63.82
2023-02-27T08:58:16.994Z,63.80
2023-02-27T08:59:15.005Z,65.68
2023-02-27T09:00:15.056Z,66.64
2023-02-27T09:01:15.060Z,66.41
2023-02-27T09:02:14.969Z,65.79
2023-02-27T09:03:14.970Z,64.29
2023-02-27T09:04:14.957Z,64.69
2023-02-27T09:05:14.946Z,64.88
2023-02-27T09:06:14.944Z,64.33
2023-02-27T09:07:14.925Z,64.11
2023-02-27T09:08:14.916Z,64.43
2023-02-27T09:09:14.939Z,64.67
2023-02-27T09:10:14.897Z,64.59
2023-02-27T09:11:15.066Z,64.30
2023-02-27T09:12:14.881Z,64.35
2023-02-27T09:13:14.867Z,64.88
2023-02-27T09:14:14.891Z,65.19
2023-02-27T09:15:14.873Z,65.46
2023-02-27T09:16:14.880Z,65.44
2023-02-27T09:17:14.844Z,64.60
2023-02-27T09:18:14.829Z,63.89
2023-02-27T09:19:14.825Z,64.55
2023-02-27T09:20:14.809Z,65.17
2023-02-27T09:21:14.824Z,65.17
2023-02-27T09:22:14.804Z,65.06
2023-02-27T09:23:14.781Z,65.28
2023-02-27T09:24:20.195Z,66.81
2023-02-27T09:25:16.766Z,65.40
2023-02-27T09:26:14.781Z,65.83
2023-02-27T09:27:14.760Z,65.42
2023-02-27T09:28:14.759Z,64.89
2023-02-27T09:29:14.730Z,64.44
2023-02-27T09:30:14.726Z,63.74
2023-02-27T09:31:14.751Z,65.75
2023-02-27T09:32:14.802Z,64.72
2023-02-27T09:33:14.718Z,65.83
2023-02-27T09:34:14.702Z,65.56
2023-02-27T09:35:14.681Z,65.59
2023-02-27T09:36:14.690Z,66.47
2023-02-27T09:37:14.665Z,65.95
2023-02-27T09:38:14.663Z,65.80
2023-02-27T09:39:14.650Z,64.42
2023-02-27T09:40:14.641Z,65.60
2023-02-27T09:41:14.639Z,65.09
2023-02-27T09:42:14.623Z,66.02
2023-02-27T09:43:14.701Z,65.81
2023-02-27T09:44:14.604Z,65.62
2023-02-27T09:45:14.603Z,66.01
2023-02-27T09:46:14.675Z,67.47
2023-02-27T09:47:14.586Z,65.65
2023-02-27T09:48:14.563Z,64.88
2023-02-27T09:49:15.563Z,65.45
2023-02-27T09:50:14.567Z,65.09
2023-02-27T09:51:14.576Z,63.84
2023-02-27T09:52:14.540Z,64.03
2023-02-27T09:53:14.541Z,65.04
2023-02-27T09:54:14.529Z,63.07
2023-02-27T09:55:14.512Z,61.89
2023-02-27T09:56:14.512Z,61.99
2023-02-27T09:57:14.496Z,65.10
2023-02-27T09:58:14.499Z,66.09
2023-02-27T09:59:14.490Z,66.12
2023-02-27T10:00:14.466Z,64.39
2023-02-27T10:01:14.512Z,63.55
2023-02-27T10:02:14.466Z,63.74
2023-02-27T10:03:14.510Z,64.67
2023-02-27T10:04:14.432Z,65.58
2023-02-27T10:05:14.425Z,64.98
2023-02-27T10:06:14.430Z,64.89
2023-02-27T10:07:14.404Z,66.00
2023-02-27T10:08:14.423Z,65.58
2023-02-27T10:09:14.393Z,65.85
2023-02-27T10:10:14.379Z,65.82
2023-02-27T10:11:14.390Z,65.27
2023-02-27T10:12:14.368Z,65.40
2023-02-27T10:13:14.357Z,66.85
2023-02-27T10:14:14.353Z,66.55
2023-02-27T10:15:14.351Z,66.26
2023-02-27T10:16:14.362Z,65.58
2023-02-27T10:17:14.323Z,64.78
2023-02-27T10:18:26.026Z,65.78
2023-02-27T10:19:16.322Z,66.94
2023-02-27T10:20:14.299Z,65.50
2023-02-27T10:21:14.318Z,66.44
2023-02-27T10:22:14.285Z,66.11
2023-02-27T10:23:14.270Z,65.72
2023-02-27T10:24:14.264Z,66.16
2023-02-27T10:25:29.821Z,64.60
2023-02-27T10:26:16.257Z,64.46
2023-02-27T10:27:14.250Z,63.76
2023-02-27T10:28:14.266Z,63.72
2023-02-27T10:29:14.243Z,64.68
2023-02-27T10:30:20.206Z,64.93
2023-02-27T10:31:16.274Z,64.73
2023-02-27T10:32:14.286Z,66.74
2023-02-27T10:33:14.210Z,65.64
2023-02-27T10:34:14.181Z,67.52
2023-02-27T10:35:14.173Z,66.09
2023-02-27T10:36:30.660Z,66.37
2023-02-27T10:37:16.164Z,66.75
2023-02-27T10:38:14.145Z,66.55
2023-02-27T10:39:14.145Z,66.11
2023-02-27T10:40:14.133Z,66.28
2023-02-27T10:41:14.132Z,67.18
2023-02-27T10:42:14.115Z,66.49
2023-02-27T10:43:14.105Z,66.73
2023-02-27T10:44:14.478Z,66.39
2023-02-27T10:45:14.090Z,66.44
2023-02-27T10:46:14.118Z,65.41
2023-02-27T10:47:14.086Z,67.17
2023-02-27T10:48:14.059Z,67.84
2023-02-27T10:49:14.048Z,68.73
2023-02-27T10:50:14.047Z,65.94
2023-02-27T10:51:14.045Z,66.23
2023-02-27T10:52:14.053Z,65.17
2023-02-27T10:53:14.020Z,65.71
2023-02-27T10:54:14.030Z,66.53
2023-02-27T10:55:13.999Z,66.16
2023-02-27T10:56:14.003Z,66.11
2023-02-27T10:57:13.982Z,65.60
2023-02-27T10:58:13.984Z,64.53
2023-02-27T10:59:13.968Z,65.34
2023-02-27T11:00:13.954Z,66.91
2023-02-27T11:01:14.004Z,65.58
2023-02-27T11:02:13.937Z,65.77
2023-02-27T11:03:13.929Z,67.94
2023-02-27T11:04:13.971Z,66.20
2023-02-27T11:05:13.913Z,65.86
2023-02-27T11:06:13.916Z,65.51
2023-02-27T11:07:13.925Z,67.47
2023-02-27T11:08:13.888Z,66.08
2023-02-27T11:09:13.875Z,66.95
2023-02-27T11:10:13.869Z,66.17
2023-02-27T11:11:14.083Z,65.94
2023-02-27T11:12:13.862Z,66.32
2023-02-27T11:13:13.865Z,65.70
2023-02-27T11:14:13.858Z,65.18
2023-02-27T11:15:13.843Z,67.07
2023-02-27T11:16:13.898Z,67.29
2023-02-27T11:17:13.808Z,66.36
2023-02-27T11:18:13.802Z,66.07
2023-02-27T11:19:14.556Z,67.50
2023-02-27T11:20:14.787Z,66.92
2023-02-27T11:21:13.788Z,67.47
2023-02-27T11:22:13.766Z,67.06
2023-02-27T11:23:13.768Z,65.93
2023-02-27T11:24:13.763Z,67.28
2023-02-27T11:25:13.748Z,67.16
2023-02-27T11:26:13.749Z,67.70
2023-02-27T11:27:13.729Z,67.83
2023-02-27T11:28:13.725Z,67.50
2023-02-27T11:29:13.713Z,66.92
2023-02-27T11:30:14.897Z,67.89
2023-02-27T11:31:13.772Z,67.22
2023-02-27T11:32:13.895Z,66.45
2023-02-27T11:33:13.689Z,68.70
2023-02-27T11:34:13.677Z,67.08
2023-02-27T11:36:25.213Z,65.12
2023-02-27T11:37:25.197Z,66.74
2023-02-27T11:38:25.186Z,67.01
2023-02-27T11:39:25.179Z,67.73
2023-02-27T11:40:25.166Z,67.43
2023-02-27T11:41:25.179Z,67.64
2023-02-27T11:42:25.156Z,66.73
2023-02-27T11:43:25.144Z,66.71
2023-02-27T11:44:50.216Z,67.08
2023-02-27T11:46:04.275Z,67.39
2023-02-27T11:46:47.417Z,67.86
2023-02-27T11:47:26.132Z,68.19
2023-02-27T11:48:25.105Z,66.35
2023-02-27T11:49:25.091Z,67.20
2023-02-27T11:50:25.090Z,68.11
2023-02-27T11:51:25.421Z,67.52
2023-02-27T11:52:25.057Z,66.93
2023-02-27T11:53:25.058Z,67.27
2023-02-27T11:54:25.041Z,67.41
2023-02-27T11:55:25.039Z,68.44
2023-02-27T11:56:25.045Z,66.12
2023-02-27T11:57:25.055Z,66.45
2023-02-27T11:58:25.013Z,67.79
2023-02-27T11:59:26.120Z,65.90
2023-02-27T12:00:26.125Z,66.22
2023-02-27T12:01:26.356Z,67.35
2023-02-27T12:02:26.118Z,66.57
2023-02-27T12:03:26.081Z,66.59
2023-02-27T12:04:26.085Z,65.73
2023-02-27T12:05:26.066Z,66.61
2023-02-27T12:06:26.079Z,68.02
2023-02-27T12:07:26.045Z,67.03
2023-02-27T12:08:26.045Z,67.83
2023-02-27T12:09:26.026Z,66.64
2023-02-27T12:10:26.036Z,68.72
2023-02-27T12:11:26.022Z,68.04
2023-02-27T12:12:26.009Z,67.78
2023-02-27T12:13:25.995Z,67.84
2023-02-27T12:14:26.000Z,67.76
2023-02-27T12:15:25.979Z,66.44
2023-02-27T12:16:26.614Z,68.18
2023-02-27T12:17:25.957Z,69.48
2023-02-27T12:18:25.950Z,68.29
2023-02-27T12:19:25.957Z,67.52
2023-02-27T12:20:26.932Z,67.36
2023-02-27T12:21:25.929Z,66.29
2023-02-27T12:22:25.915Z,67.45
2023-02-27T12:23:25.929Z,69.09
2023-02-27T12:24:25.898Z,68.03
2023-02-27T12:25:25.896Z,68.97
2023-02-27T12:26:26.273Z,68.22
2023-02-27T12:27:25.902Z,67.21
2023-02-27T12:28:25.862Z,67.60
2023-02-27T12:29:25.880Z,67.50
2023-02-27T12:30:25.842Z,66.33
2023-02-27T12:31:26.126Z,69.02
2023-02-27T12:32:25.969Z,67.91
2023-02-27T12:33:25.827Z,67.79
2023-02-27T12:34:25.803Z,67.80
2023-02-27T12:35:25.851Z,68.30
2023-02-27T12:36:25.795Z,69.00
2023-02-27T12:37:25.795Z,67.64
2023-02-27T12:38:25.771Z,66.87
2023-02-27T12:39:25.759Z,67.36
2023-02-27T12:40:25.758Z,66.17
2023-02-27T12:41:26.020Z,67.35
2023-02-27T12:42:25.755Z,66.20
2023-02-27T12:43:25.722Z,68.16
2023-02-27T12:44:25.718Z,67.71
2023-02-27T12:45:25.734Z,67.22
2023-02-27T12:46:25.699Z,67.84
2023-02-27T12:47:25.719Z,68.16
2023-02-27T12:48:25.678Z,67.64
2023-02-27T12:49:25.673Z,67.08
2023-02-27T12:50:25.655Z,67.82
2023-02-27T12:51:26.959Z,67.38
2023-02-27T12:52:25.654Z,68.01
2023-02-27T12:53:25.652Z,68.78